Time;durP1;ratioP1;P1;durP2;ratioP2;P2;SDS_P1;SDS_P2;PMS_P1;PMS_P2;Temp;Humidity;BMP_temperature;BMP_pressure;BME280_temperature;BME280_humidity;BME280_pressure;Samples;Min_cycle;Max_cycle;Signal;HPM_P1;HPM_P2
2022/03/02 00:01:26;;;;;;;31.30;21.10;;;;;;;4.29;63.89;102557.34;5012864;28;20026;-55
2022/03/02 00:03:51;;;;;;;32.67;21.23;;;;;;;4.24;63.54;102548.94;5012798;28;20026;-56
2022/03/02 00:06:17;;;;;;;33.33;21.55;;;;;;;4.21;63.25;102554.84;4995879;28;20109;-57
2022/03/02 00:08:45;;;;;;;31.80;21.70;;;;;;;4.18;62.68;102552.56;4995201;28;20026;-58
2022/03/02 00:11:11;;;;;;;31.42;20.90;;;;;;;4.17;64.37;102556.34;4991315;28;20493;-56
2022/03/02 00:13:38;;;;;;;32.63;22.30;;;;;;;4.13;64.20;102555.09;4992884;28;20054;-56
2022/03/02 00:16:03;;;;;;;31.55;21.13;;;;;;;4.09;63.79;102551.97;4993212;28;20446;-57
2022/03/02 00:18:29;;;;;;;33.38;21.30;;;;;;;4.04;64.21;102552.63;4993192;28;20478;-57
2022/03/02 00:20:55;;;;;;;32.85;21.83;;;;;;;4.01;64.11;102546.75;4991918;28;20050;-57
2022/03/02 00:23:20;;;;;;;32.20;21.17;;;;;;;3.98;63.72;102548.03;4993149;28;20482;-56
2022/03/02 00:25:45;;;;;;;33.60;22.85;;;;;;;3.98;63.85;102542.56;4992938;28;20116;-58
2022/03/02 00:28:10;;;;;;;33.40;21.88;;;;;;;3.96;64.14;102546.59;4992529;28;20027;-58
2022/03/02 00:30:40;;;;;;;34.08;21.33;;;;;;;3.93;63.34;102547.03;4992922;28;20114;-59
2022/03/02 00:33:05;;;;;;;30.60;21.75;;;;;;;3.89;63.72;102552.09;4993004;28;20023;-59
2022/03/02 00:35:31;;;;;;;32.88;21.17;;;;;;;3.86;63.50;102547.06;4993284;28;20108;-57
2022/03/02 00:37:56;;;;;;;31.33;20.95;;;;;;;3.86;63.98;102541.56;4992917;28;20061;-59
2022/03/02 00:40:22;;;;;;;32.53;20.20;;;;;;;3.85;63.39;102543.50;4993093;28;20431;-59
2022/03/02 00:42:47;;;;;;;32.03;20.75;;;;;;;3.83;63.69;102544.75;4991410;28;20088;-59
2022/03/02 00:45:12;;;;;;;33.95;20.77;;;;;;;3.80;63.14;102532.34;4992778;28;20034;-59
2022/03/02 00:47:38;;;;;;;31.20;21.08;;;;;;;3.80;63.83;102545.19;4992799;28;20076;-59
2022/03/02 00:50:04;;;;;;;30.77;20.95;;;;;;;3.77;63.32;102537.41;4993264;28;20030;-56
2022/03/02 00:52:30;;;;;;;31.02;20.60;;;;;;;3.76;63.61;102542.06;4992304;28;20035;-58
2022/03/02 00:54:56;;;;;;;30.73;20.17;;;;;;;3.73;62.29;102537.84;4992616;28;20026;-56
2022/03/02 00:57:21;;;;;;;31.88;21.35;;;;;;;3.71;62.17;102539.13;4992836;28;20390;-58
2022/03/02 00:59:46;;;;;;;31.23;19.92;;;;;;;3.72;63.30;102533.44;4992580;28;20053;-54
2022/03/02 01:02:12;;;;;;;31.60;20.90;;;;;;;3.71;62.97;102531.78;4995937;28;20030;-57
2022/03/02 01:04:38;;;;;;;30.42;20.52;;;;;;;3.68;62.11;102536.84;4995505;28;20033;-57
2022/03/02 01:07:04;;;;;;;30.00;19.90;;;;;;;3.67;62.03;102526.94;4996119;28;20168;-57
2022/03/02 01:09:30;;;;;;;29.83;19.83;;;;;;;3.66;61.85;102528.84;4996415;28;20068;-59
2022/03/02 01:11:55;;;;;;;30.27;19.83;;;;;;;3.64;61.52;102536.41;5008558;28;20054;-57
2022/03/02 01:14:20;;;;;;;31.58;20.92;;;;;;;3.65;62.52;102526.31;5015780;28;20030;-57
2022/03/02 01:16:46;;;;;;;33.92;21.52;;;;;;;3.65;63.20;102515.38;4997804;28;20036;-58
2022/03/02 01:19:11;;;;;;;32.17;21.30;;;;;;;3.63;62.07;102521.06;5015951;28;20030;-58
2022/03/02 01:21:36;;;;;;;30.15;19.35;;;;;;;3.59;61.96;102509.69;4998210;28;20432;-56
2022/03/02 01:24:02;;;;;;;29.75;20.27;;;;;;;3.64;62.44;102525.47;5015913;28;20029;-59
2022/03/02 01:26:29;;;;;;;30.77;20.38;;;;;;;3.66;63.06;102506.09;5016051;28;20030;-58
2022/03/02 01:28:55;;;;;;;31.25;20.15;;;;;;;3.64;63.22;102511.78;5015422;28;20048;-58
2022/03/02 01:31:22;;;;;;;31.63;20.90;;;;;;;3.63;62.00;102510.13;5015419;28;20033;-59
2022/03/02 01:33:48;;;;;;;31.58;20.45;;;;;;;3.59;62.72;102498.75;5016289;28;20018;-59
2022/03/02 01:36:14;;;;;;;32.65;20.65;;;;;;;3.60;61.53;102505.09;5015258;28;20022;-58
2022/03/02 01:38:40;;;;;;;32.58;20.55;;;;;;;3.59;61.47;102508.88;4998063;28;20029;-58
2022/03/02 01:41:05;;;;;;;30.52;19.52;;;;;;;3.58;61.74;102497.09;5015310;28;20084;-58
2022/03/02 01:43:30;;;;;;;29.65;20.25;;;;;;;3.55;62.07;102503.00;5015322;28;20392;-58
2022/03/02 01:45:56;;;;;;;32.03;21.23;;;;;;;3.54;62.50;102503.22;5015368;28;20030;-59
2022/03/02 01:48:21;;;;;;;31.20;20.42;;;;;;;3.55;62.56;102496.66;5015219;28;20506;-59
2022/03/02 01:50:46;;;;;;;30.65;19.60;;;;;;;3.55;62.75;102496.66;5015312;28;20112;-57
2022/03/02 01:53:12;;;;;;;31.70;20.80;;;;;;;3.52;62.25;102489.75;5014854;28;20080;-58
2022/03/02 01:55:37;;;;;;;31.20;20.15;;;;;;;3.52;62.46;102497.94;5014798;28;20030;-58
2022/03/02 01:58:04;;;;;;;30.38;19.98;;;;;;;3.52;63.07;102491.66;5014480;28;20470;-59
2022/03/02 02:00:31;;;;;;;30.42;19.20;;;;;;;3.50;62.45;102489.13;5014818;28;20506;-57
2022/03/02 02:02:56;;;;;;;30.90;20.13;;;;;;;3.50;62.76;102494.59;5014921;28;20060;-58
2022/03/02 02:05:22;;;;;;;29.75;19.63;;;;;;;3.50;62.38;102491.03;5014848;28;20030;-57
2022/03/02 02:07:48;;;;;;;30.50;20.42;;;;;;;3.47;61.33;102485.97;5014941;28;20084;-58
2022/03/02 02:10:14;;;;;;;29.60;18.98;;;;;;;3.46;62.04;102482.41;5015066;28;20478;-57
2022/03/02 02:12:39;;;;;;;31.02;20.05;;;;;;;3.43;62.20;102483.69;5014938;28;20058;-60
2022/03/02 02:15:06;;;;;;;31.63;20.00;;;;;;;3.42;61.73;102479.28;5014774;28;20022;-58
2022/03/02 02:17:31;;;;;;;28.80;18.70;;;;;;;3.42;61.98;102478.44;5014494;28;20466;-57
2022/03/02 02:19:57;;;;;;;31.38;19.08;;;;;;;3.40;62.33;102484.13;5014660;28;20037;-58
2022/03/02 02:22:22;;;;;;;31.27;20.80;;;;;;;3.37;62.24;102476.34;5014523;28;20442;-57
2022/03/02 02:24:47;;;;;;;29.55;20.35;;;;;;;3.36;61.90;102482.03;5014751;28;20037;-58
2022/03/02 02:27:15;;;;;;;31.05;19.15;;;;;;;3.35;61.67;102469.41;5014475;28;20049;-56
2022/03/02 02:29:42;;;;;;;31.60;19.85;;;;;;;3.32;62.62;102470.69;5014582;28;20061;-58
2022/03/02 02:32:08;;;;;;;30.73;20.08;;;;;;;3.32;61.37;102478.03;5014224;28;20022;-57
2022/03/02 02:34:33;;;;;;;30.13;20.25;;;;;;;3.24;61.56;102458.09;4997068;28;20022;-57
2022/03/02 02:36:59;;;;;;;32.10;20.48;;;;;;;3.28;61.66;102466.69;5014428;28;20045;-55
2022/03/02 02:39:26;;;;;;;31.15;19.70;;;;;;;3.27;63.07;102462.28;4996810;28;20026;-55
2022/03/02 02:41:51;;;;;;;29.48;18.95;;;;;;;3.26;62.81;102453.25;5014343;28;20030;-57
2022/03/02 02:44:17;;;;;;;30.77;19.45;;;;;;;3.27;63.04;102449.47;5014301;28;20033;-56
2022/03/02 02:46:43;;;;;;;31.25;19.42;;;;;;;3.25;63.41;102451.56;5013779;28;20029;-57
2022/03/02 02:49:09;;;;;;;32.88;20.08;;;;;;;3.25;62.64;102458.94;5013813;28;20073;-57
2022/03/02 02:51:34;;;;;;;30.65;20.23;;;;;;;3.22;62.41;102453.91;5013884;28;20029;-56
2022/03/02 02:54:01;;;;;;;30.65;19.13;;;;;;;3.19;62.16;102452.44;5013532;28;20065;-57
2022/03/02 02:56:26;;;;;;;30.10;20.40;;;;;;;3.20;63.11;102447.81;4996391;28;20034;-57
2022/03/02 02:58:52;;;;;;;29.13;19.70;;;;;;;3.17;62.96;102446.34;5013507;28;20030;-57
2022/03/02 03:01:17;;;;;;;29.65;19.17;;;;;;;3.16;62.45;102452.03;5013798;28;20030;-57
2022/03/02 03:03:42;;;;;;;30.52;18.80;;;;;;;3.14;63.03;102446.78;5013569;28;20061;-56
2022/03/02 03:06:08;;;;;;;29.85;19.15;;;;;;;3.11;62.81;102449.97;4995901;28;20022;-57
2022/03/02 03:08:33;;;;;;;30.63;19.40;;;;;;;3.10;63.20;102453.75;5013499;28;20041;-56
2022/03/02 03:10:59;;;;;;;29.67;19.00;;;;;;;3.06;63.09;102444.28;5038471;22;20045;-52
2022/03/02 03:13:24;;;;;;;30.40;20.30;;;;;;;3.03;63.56;102444.72;5032842;28;20034;-53
2022/03/02 03:15:50;;;;;;;29.85;18.83;;;;;;;3.02;63.85;102440.31;5032756;28;20022;-54
2022/03/02 03:18:15;;;;;;;30.90;19.90;;;;;;;3.01;63.98;102439.47;5032830;28;20026;-51
2022/03/02 03:20:40;;;;;;;30.17;18.92;;;;;;;2.97;64.40;102441.78;5033130;28;20087;-50
2022/03/02 03:23:06;;;;;;;29.10;19.15;;;;;;;2.96;64.43;102450.22;5032313;28;20048;-51
2022/03/02 03:25:32;;;;;;;31.27;19.35;;;;;;;2.93;64.22;102443.25;5033182;28;20030;-53
2022/03/02 03:27:58;;;;;;;29.10;19.42;;;;;;;2.91;63.76;102437.19;5032898;28;20447;-51
2022/03/02 03:30:25;;;;;;;30.38;19.45;;;;;;;2.90;65.09;102451.06;5032655;28;20095;-52
2022/03/02 03:32:51;;;;;;;30.30;18.38;;;;;;;2.87;65.00;102448.78;5032621;28;20033;-53
2022/03/02 03:35:18;;;;;;;31.35;18.63;;;;;;;2.87;64.71;102443.31;5032842;28;20445;-53
2022/03/02 03:37:44;;;;;;;29.95;18.95;;;;;;;2.85;64.50;102432.56;5033337;28;20036;-51
2022/03/02 03:40:11;;;;;;;31.25;19.42;;;;;;;2.82;65.09;102435.75;5033155;28;20029;-50
2022/03/02 03:42:37;;;;;;;30.85;19.60;;;;;;;2.78;64.94;102437.22;5032456;28;20029;-51
2022/03/02 03:45:03;;;;;;;30.30;19.05;;;;;;;2.75;65.27;102440.38;5033003;28;20389;-52
2022/03/02 03:47:29;;;;;;;29.15;19.77;;;;;;;2.73;65.52;102443.34;5033171;28;20025;-53
2022/03/02 03:49:54;;;;;;;31.38;19.60;;;;;;;2.70;65.30;102440.19;5032587;28;20037;-54
2022/03/02 03:52:19;;;;;;;29.90;18.70;;;;;;;2.67;66.04;102444.19;5032923;28;20036;-54
2022/03/02 03:54:45;;;;;;;30.40;19.83;;;;;;;2.62;64.54;102438.53;5032970;28;20064;-52
2022/03/02 03:57:10;;;;;;;30.63;19.88;;;;;;;2.58;64.89;102440.84;5032751;28;20500;-53
2022/03/02 03:59:35;;;;;;;30.67;19.48;;;;;;;2.55;65.69;102438.53;5032713;28;20026;-53
2022/03/02 04:02:01;;;;;;;30.10;19.15;;;;;;;2.55;65.96;102440.44;5032983;28;20396;-50
2022/03/02 04:04:26;;;;;;;29.83;20.23;;;;;;;2.54;66.62;102438.75;5032153;28;20057;-53
2022/03/02 04:06:52;;;;;;;31.40;20.60;;;;;;;2.50;67.59;102439.16;5033337;28;20448;-53
2022/03/02 04:09:17;;;;;;;30.70;19.38;;;;;;;2.47;66.79;102434.16;5032695;28;20022;-53
2022/03/02 04:11:43;;;;;;;31.92;20.65;;;;;;;2.48;66.79;102422.16;5032851;28;20061;-52
2022/03/02 04:14:08;;;;;;;32.25;19.45;;;;;;;2.47;66.78;102425.09;5032059;28;20029;-54
2022/03/02 04:16:34;;;;;;;29.80;19.60;;;;;;;2.46;66.71;102423.41;5032786;28;20113;-52
2022/03/02 04:18:59;;;;;;;31.20;20.00;;;;;;;2.42;66.93;102422.16;5032070;28;20104;-51
2022/03/02 04:21:24;;;;;;;30.83;20.58;;;;;;;2.39;66.79;102417.97;5032622;28;20032;-52
2022/03/02 04:23:50;;;;;;;33.13;19.20;;;;;;;2.38;66.61;102413.56;5032150;28;20026;-53
2022/03/02 04:26:15;;;;;;;29.63;19.00;;;;;;;2.37;66.34;102403.69;5032655;28;20030;-52
2022/03/02 04:28:40;;;;;;;30.80;19.45;;;;;;;2.36;65.90;102406.66;5032021;28;20114;-54
2022/03/02 04:31:06;;;;;;;31.40;20.40;;;;;;;2.36;66.68;102412.09;5032605;28;20441;-54
2022/03/02 04:33:31;;;;;;;31.15;19.60;;;;;;;2.32;66.67;102401.59;5032201;28;20029;-53
2022/03/02 04:35:56;;;;;;;30.65;19.38;;;;;;;2.31;66.35;102394.44;5036482;28;20029;-52
2022/03/02 04:38:22;;;;;;;29.17;18.25;;;;;;;2.30;65.86;102394.69;5036157;28;20033;-51
2022/03/02 04:40:47;;;;;;;31.35;20.40;;;;;;;2.29;67.04;102393.81;5036365;28;20034;-52
2022/03/02 04:43:12;;;;;;;30.88;19.33;;;;;;;2.27;67.21;102395.09;5036387;28;20542;-54
2022/03/02 04:45:38;;;;;;;29.95;19.60;;;;;;;2.24;66.30;102395.50;5036098;28;20469;-53
2022/03/02 04:48:04;;;;;;;30.00;18.67;;;;;;;2.22;66.50;102384.81;5035854;28;20026;-52
2022/03/02 04:50:29;;;;;;;29.65;19.33;;;;;;;2.22;66.36;102390.25;5036304;28;20481;-51
2022/03/02 04:52:55;;;;;;;30.52;19.92;;;;;;;2.20;66.81;102395.09;5036075;28;20485;-54
2022/03/02 04:55:21;;;;;;;29.63;19.63;;;;;;;2.19;67.39;102393.41;5036032;28;20041;-54
2022/03/02 04:57:52;;;;;;;28.33;19.48;;;;;;;2.18;67.28;102400.78;5035452;28;20033;-54
2022/03/02 05:00:19;;;;;;;32.33;20.40;;;;;;;2.16;66.64;102394.69;5035506;28;20022;-53
2022/03/02 05:02:45;;;;;;;31.08;20.25;;;;;;;2.14;66.59;102398.69;5018230;28;20034;-51
2022/03/02 05:05:13;;;;;;;29.80;17.77;;;;;;;2.12;66.50;102381.66;5036146;28;20076;-53
2022/03/02 05:07:39;;;;;;;29.88;18.85;;;;;;;2.10;66.91;102387.34;5035649;28;20370;-53
2022/03/02 05:10:06;;;;;;;29.05;19.55;;;;;;;2.07;66.51;102384.19;5035524;28;20140;-51
2022/03/02 05:12:31;;;;;;;30.45;20.17;;;;;;;2.05;66.87;102383.56;5035522;28;20037;-52
2022/03/02 05:14:57;;;;;;;29.42;19.52;;;;;;;2.01;67.12;102383.97;5035251;28;20424;-53
2022/03/02 05:17:23;;;;;;;30.30;19.30;;;;;;;1.99;66.78;102386.06;5035565;28;20033;-54
2022/03/02 05:19:48;;;;;;;28.67;18.73;;;;;;;1.98;66.69;102381.69;5035778;28;20041;-52
2022/03/02 05:22:14;;;;;;;29.80;18.42;;;;;;;1.97;67.11;102377.28;5018104;28;20033;-53
2022/03/02 05:24:40;;;;;;;31.65;19.40;;;;;;;1.94;67.04;102377.69;5035334;28;20550;-54
2022/03/02 05:27:06;;;;;;;30.48;18.92;;;;;;;1.91;66.67;102377.25;5035511;28;20373;-51
2022/03/02 05:29:31;;;;;;;30.48;18.75;;;;;;;1.88;67.92;102378.53;5035269;28;20109;-49
2022/03/02 05:31:56;;;;;;;29.50;19.95;;;;;;;1.84;67.35;102374.53;5035299;28;20021;-53
2022/03/02 05:34:22;;;;;;;31.88;20.33;;;;;;;1.81;67.11;102381.25;5035611;28;20172;-52
2022/03/02 05:36:47;;;;;;;31.33;19.80;;;;;;;1.78;67.92;102378.09;5035660;28;20033;-51
2022/03/02 05:39:13;;;;;;;31.17;20.02;;;;;;;1.73;67.12;102380.59;5035578;28;20021;-50
2022/03/02 05:41:39;;;;;;;29.50;19.65;;;;;;;1.70;67.42;102373.69;5035406;28;20040;-55
2022/03/02 05:44:07;;;;;;;31.13;19.63;;;;;;;1.66;67.50;102370.53;5035259;28;20079;-53
2022/03/02 05:46:33;;;;;;;28.63;18.27;;;;;;;1.66;68.08;102375.13;5034216;28;20026;-54
2022/03/02 05:48:59;;;;;;;28.20;18.95;;;;;;;1.64;68.06;102374.53;5034699;28;20033;-50
2022/03/02 05:51:25;;;;;;;30.13;18.60;;;;;;;1.60;67.21;102371.38;5034809;28;20095;-51
2022/03/02 05:53:50;;;;;;;30.42;20.70;;;;;;;1.59;68.11;102375.16;5034767;28;20469;-52
2022/03/02 05:56:15;;;;;;;28.73;20.10;;;;;;;1.57;68.73;102374.50;5034977;28;20022;-54
2022/03/02 05:58:40;;;;;;;31.13;19.15;;;;;;;1.55;67.89;102372.00;5035272;28;20056;-53
2022/03/02 06:01:06;;;;;;;31.60;20.20;;;;;;;1.55;68.39;102374.72;5034679;28;20083;-54
2022/03/02 06:03:32;;;;;;;29.02;18.55;;;;;;;1.56;68.54;102375.56;5034635;28;20358;-51
2022/03/02 06:05:57;;;;;;;31.10;19.85;;;;;;;1.55;68.62;102373.88;5034833;28;20049;-53
2022/03/02 06:08:23;;;;;;;28.17;19.15;;;;;;;1.55;68.20;102376.59;5035379;28;20052;-52
2022/03/02 06:10:49;;;;;;;29.85;19.00;;;;;;;1.54;68.13;102380.38;5034128;28;20061;-53
2022/03/02 06:13:15;;;;;;;30.42;19.02;;;;;;;1.53;68.49;102386.88;5034423;28;20022;-53
2022/03/02 06:15:42;;;;;;;29.95;18.83;;;;;;;1.50;68.48;102390.03;5034115;28;20033;-54
2022/03/02 06:18:07;;;;;;;31.27;20.15;;;;;;;1.46;68.60;102378.72;5034217;28;20025;-54
2022/03/02 06:20:33;;;;;;;29.40;18.73;;;;;;;1.46;68.56;102375.97;5034386;28;20083;-54
2022/03/02 06:22:59;;;;;;;30.77;18.63;;;;;;;1.45;68.20;102378.91;5034199;28;20025;-53
2022/03/02 06:25:25;;;;;;;28.70;18.58;;;;;;;1.46;68.75;102383.31;5034354;28;20029;-54
2022/03/02 06:27:51;;;;;;;29.30;19.73;;;;;;;1.46;68.37;102380.56;5033749;28;20032;-54
2022/03/02 06:30:16;;;;;;;31.10;19.73;;;;;;;1.49;68.08;102381.00;5034349;28;20040;-53
2022/03/02 06:32:41;;;;;;;29.67;19.00;;;;;;;1.50;67.44;102384.59;5033652;28;20029;-54
2022/03/02 06:35:07;;;;;;;30.15;18.95;;;;;;;1.51;67.33;102389.00;5033915;28;20048;-54
2022/03/02 06:37:34;;;;;;;30.67;19.42;;;;;;;1.53;67.11;102378.69;5034330;28;20033;-51
2022/03/02 06:40:00;;;;;;;29.77;19.30;;;;;;;1.54;67.49;102391.28;5034321;28;20061;-54
2022/03/02 06:42:59;;;;;;;30.70;19.25;;;;;;;1.56;67.27;102383.75;5033797;28;20029;-54
2022/03/02 06:45:33;;;;;;;30.88;18.25;;;;;;;1.56;66.98;102386.47;5002604;28;20033;-52
2022/03/02 06:48:16;;;;;;;29.80;18.08;;;;;;;1.50;67.14;102373.69;5033800;28;20489;-52
2022/03/02 06:50:44;;;;;;;28.08;18.10;;;;;;;1.63;66.71;102395.50;5034612;28;20401;-52
2022/03/02 06:53:14;;;;;;;32.30;18.27;;;;;;;1.65;66.12;102393.41;5034358;28;20026;-53
2022/03/02 06:55:42;;;;;;;29.48;18.58;;;;;;;1.69;66.65;102402.88;5034483;28;20025;-54
2022/03/02 06:58:10;;;;;;;28.98;17.90;;;;;;;1.71;65.87;102397.19;5034329;28;20035;-54
2022/03/02 07:00:37;;;;;;;33.17;18.40;;;;;;;1.73;65.33;102405.16;5034063;28;20029;-53
2022/03/02 07:03:10;;;;;;;27.80;17.95;;;;;;;1.69;64.61;102402.88;5034200;28;20025;-54
2022/03/02 07:05:37;;;;;;;27.80;17.95;;;;;;;1.76;64.39;102405.59;5034228;28;20048;-53
2022/03/02 07:08:04;;;;;;;27.73;17.08;;;;;;;1.82;64.44;102407.50;5034381;28;20104;-53
2022/03/02 07:10:34;;;;;;;29.73;17.65;;;;;;;1.87;64.05;102406.88;5033984;28;20083;-50
2022/03/02 07:13:02;;;;;;;28.83;17.63;;;;;;;1.91;64.63;102399.94;5033700;28;20048;-52
2022/03/02 07:15:33;;;;;;;29.30;17.77;;;;;;;1.91;63.73;102393.66;5033380;28;20025;-51
2022/03/02 07:17:59;;;;;;;27.83;18.45;;;;;;;1.97;63.78;102410.03;5021380;28;20361;-53
2022/03/02 07:20:27;;;;;;;31.02;18.08;;;;;;;2.02;64.34;102412.13;5040957;28;20148;-53
2022/03/02 07:22:54;;;;;;;29.67;17.83;;;;;;;2.06;63.96;102407.91;5053832;28;20029;-52
2022/03/02 07:25:26;;;;;;;29.45;17.83;;;;;;;2.08;63.79;102392.16;5053912;28;20108;-53
2022/03/02 07:27:54;;;;;;;32.13;18.48;;;;;;;2.12;63.61;102396.16;5024813;28;20049;-52
2022/03/02 07:30:20;;;;;;;29.40;18.20;;;;;;;2.19;63.93;102407.06;5011824;28;20029;-51
2022/03/02 07:32:46;;;;;;;28.52;17.48;;;;;;;2.22;63.88;102403.91;5011645;28;20085;-51
2022/03/02 07:35:13;;;;;;;30.38;17.90;;;;;;;2.27;64.05;102397.81;5011766;28;20030;-53
2022/03/02 07:37:39;;;;;;;31.27;18.48;;;;;;;2.33;63.90;102389.63;5011759;28;20033;-51
2022/03/02 07:40:06;;;;;;;28.55;16.55;;;;;;;2.39;62.90;102395.28;5011812;28;20049;-53
2022/03/02 07:42:32;;;;;;;27.33;17.08;;;;;;;2.48;63.07;102399.47;5011572;28;20065;-52
2022/03/02 07:44:58;;;;;;;30.42;17.88;;;;;;;2.55;62.80;102402.19;5011388;28;20032;-52
2022/03/02 07:47:24;;;;;;;29.63;17.88;;;;;;;2.59;62.55;102401.53;5011208;28;20105;-53
2022/03/02 07:49:50;;;;;;;29.90;17.50;;;;;;;2.63;62.12;102396.47;5011029;28;20095;-53
2022/03/02 07:52:17;;;;;;;29.58;18.15;;;;;;;2.67;62.75;102389.53;5009624;28;20481;-54
2022/03/02 07:54:43;;;;;;;28.67;17.15;;;;;;;2.70;60.71;102389.09;5011528;28;20081;-52
2022/03/02 07:57:11;;;;;;;28.75;17.63;;;;;;;2.75;62.40;102392.03;5011159;28;20493;-51
2022/03/02 07:59:44;;;;;;;30.13;18.02;;;;;;;2.77;60.84;102383.63;4993504;28;20069;-50
2022/03/02 08:02:12;;;;;;;29.65;17.27;;;;;;;2.91;62.10;102393.47;5011598;28;20029;-50
2022/03/02 08:04:39;;;;;;;31.27;17.70;;;;;;;2.96;60.48;102395.53;5010096;28;20351;-51
2022/03/02 08:07:05;;;;;;;28.15;17.58;;;;;;;3.01;60.57;102389.44;5011119;28;20088;-54
2022/03/02 08:09:34;;;;;;;28.92;17.75;;;;;;;3.08;61.64;102391.06;5010762;28;20026;-52
2022/03/02 08:12:00;;;;;;;26.58;16.55;;;;;;;3.17;61.28;102399.84;5011058;28;20061;-54
2022/03/02 08:14:26;;;;;;;27.60;17.48;;;;;;;3.26;59.58;102389.50;5010910;28;20018;-55
2022/03/02 08:16:52;;;;;;;30.08;17.88;;;;;;;3.32;59.78;102394.09;5011197;28;20088;-54
2022/03/02 08:19:19;;;;;;;27.20;16.98;;;;;;;3.41;59.28;102389.19;5011140;28;20030;-52
2022/03/02 08:21:50;;;;;;;28.98;17.33;;;;;;;3.48;58.99;102375.47;5011174;28;20109;-55
2022/03/02 08:24:17;;;;;;;25.77;15.90;;;;;;;3.58;58.79;102373.09;5010785;28;20037;-54
2022/03/02 08:26:48;;;;;;;26.95;16.05;;;;;;;3.66;57.80;102372.81;5010898;28;20084;-55
2022/03/02 08:29:14;;;;;;;27.10;16.98;;;;;;;3.74;58.38;102368.97;4993373;28;20104;-54
2022/03/02 08:31:42;;;;;;;28.45;17.85;;;;;;;3.82;56.88;102376.09;4993351;28;20473;-54
2022/03/02 08:34:08;;;;;;;27.92;17.55;;;;;;;3.88;56.57;102375.19;5010892;28;20040;-53
2022/03/02 08:36:34;;;;;;;28.95;17.85;;;;;;;3.95;57.63;102365.00;5009518;28;20124;-55
2022/03/02 08:39:05;;;;;;;25.60;16.50;;;;;;;4.04;56.73;102371.06;5024367;28;20061;-55
2022/03/02 08:41:31;;;;;;;28.15;16.73;;;;;;;4.12;55.77;102368.03;5028522;28;20052;-55
2022/03/02 08:43:58;;;;;;;25.40;15.52;;;;;;;4.20;55.97;102359.50;5030617;28;20045;-53
2022/03/02 08:46:25;;;;;;;26.15;15.90;;;;;;;4.29;55.12;102364.69;5030026;28;20096;-53
2022/03/02 08:48:51;;;;;;;26.33;15.98;;;;;;;4.35;54.27;102370.13;5030732;28;20477;-53
2022/03/02 08:51:19;;;;;;;26.42;16.20;;;;;;;4.43;53.77;102365.41;5030448;28;20559;-54
2022/03/02 08:53:45;;;;;;;28.00;16.92;;;;;;;4.52;54.39;102370.38;5028642;28;20083;-51
2022/03/02 08:56:11;;;;;;;26.50;15.93;;;;;;;4.62;53.94;102364.34;5030428;28;20021;-56
2022/03/02 08:58:37;;;;;;;26.45;16.42;;;;;;;4.71;52.10;102369.50;5030523;28;20029;-55
2022/03/02 09:01:03;;;;;;;27.23;16.58;;;;;;;4.80;52.63;102370.88;5030399;28;20041;-54
2022/03/02 09:03:32;;;;;;;25.00;15.73;;;;;;;4.91;53.34;102361.88;5030422;28;20018;-54
2022/03/02 09:06:00;;;;;;;30.27;17.38;;;;;;;5.02;52.63;102362.19;5030226;28;20499;-53
2022/03/02 09:08:25;;;;;;;26.45;15.23;;;;;;;5.11;51.63;102356.13;5030308;28;20032;-53
2022/03/02 09:10:51;;;;;;;25.05;14.95;;;;;;;5.22;51.40;102351.78;5029986;28;20507;-54
2022/03/02 09:13:16;;;;;;;25.98;15.35;;;;;;;5.34;51.37;102357.28;5030366;28;20033;-53
2022/03/02 09:15:42;;;;;;;26.15;15.77;;;;;;;5.47;50.80;102365.34;5030240;28;20029;-52
2022/03/02 09:18:07;;;;;;;26.75;15.95;;;;;;;5.57;50.85;102362.00;5030311;28;20515;-55
2022/03/02 09:20:33;;;;;;;28.40;16.10;;;;;;;5.70;50.32;102354.66;5030250;28;20036;-53
2022/03/02 09:23:04;;;;;;;26.67;16.35;;;;;;;5.77;50.53;102345.22;5033291;28;20063;-52
2022/03/02 09:25:30;;;;;;;25.65;16.17;;;;;;;5.87;50.55;102341.03;5033546;28;20109;-55
2022/03/02 09:27:56;;;;;;;25.83;15.77;;;;;;;6.04;50.50;102349.44;5033917;28;20029;-54
2022/03/02 09:30:22;;;;;;;25.95;16.42;;;;;;;6.20;50.39;102345.16;5033743;28;20025;-56
2022/03/02 09:32:52;;;;;;;28.27;16.88;;;;;;;6.31;50.23;102335.22;5033800;28;20025;-55
2022/03/02 09:35:20;;;;;;;27.90;16.95;;;;;;;6.38;48.99;102338.66;5033497;28;20052;-56
2022/03/02 09:37:53;;;;;;;25.05;16.45;;;;;;;6.50;49.03;102341.41;5033670;28;20476;-55
2022/03/02 09:40:30;;;;;;;25.83;15.95;;;;;;;6.55;50.15;102331.38;5033983;28;20071;-56
2022/03/02 09:43:05;;;;;;;26.83;16.13;;;;;;;6.61;48.86;102324.06;5033893;28;20076;-54
2022/03/02 09:45:33;;;;;;;24.85;15.88;;;;;;;6.74;47.95;102330.34;5033676;28;20088;-55
2022/03/02 09:48:01;;;;;;;25.98;16.17;;;;;;;6.79;46.74;102320.28;5033312;28;20120;-56
2022/03/02 09:50:33;;;;;;;25.02;15.77;;;;;;;6.85;46.51;102326.75;5033417;28;20033;-55
2022/03/02 09:53:12;;;;;;;27.08;16.20;;;;;;;6.86;47.12;102326.47;5031687;28;20164;-55
2022/03/02 09:55:42;;;;;;;26.58;16.50;;;;;;;6.91;46.40;102324.94;5033372;28;20026;-56
2022/03/02 09:58:12;;;;;;;25.33;16.35;;;;;;;6.93;46.63;102320.84;5033399;28;20474;-55
2022/03/02 10:00:37;;;;;;;25.77;15.48;;;;;;;7.00;45.65;102328.97;5032774;28;20168;-55
2022/03/02 10:03:09;;;;;;;25.38;15.73;;;;;;;6.95;45.59;102318.69;5032776;28;20529;-54
2022/03/02 10:05:34;;;;;;;27.67;16.70;;;;;;;6.97;45.84;102333.03;5033143;28;20029;-55
2022/03/02 10:08:01;;;;;;;25.27;16.23;;;;;;;6.93;45.62;102336.53;5033081;28;20044;-54
2022/03/02 10:10:31;;;;;;;26.63;17.30;;;;;;;6.79;45.17;102314.78;5033049;28;20049;-52
2022/03/02 10:12:59;;;;;;;26.90;16.05;;;;;;;6.88;45.53;102334.50;5033125;28;20056;-54
2022/03/02 10:15:25;;;;;;;26.80;16.52;;;;;;;6.91;46.33;102322.16;5032841;28;20105;-55
2022/03/02 10:17:52;;;;;;;27.15;17.17;;;;;;;6.93;45.93;102328.28;5033098;28;20034;-56
2022/03/02 10:20:20;;;;;;;25.55;16.02;;;;;;;6.98;47.52;102322.84;5032877;28;20029;-55
2022/03/02 10:22:46;;;;;;;25.05;15.40;;;;;;;7.03;46.54;102325.72;5032205;28;20034;-56
2022/03/02 10:25:14;;;;;;;25.35;16.45;;;;;;;7.02;45.82;102319.38;5032467;28;20033;-55
2022/03/02 10:27:58;;;;;;;25.73;17.35;;;;;;;7.01;45.34;102325.13;5032349;28;20041;-54
2022/03/02 10:30:30;;;;;;;27.10;16.10;;;;;;;7.00;44.13;102324.28;5032834;28;20033;-55
2022/03/02 10:33:21;;;;;;;26.35;15.20;;;;;;;7.08;44.52;102319.47;5032079;28;20112;-56
2022/03/02 10:36:13;;;;;;;26.52;16.15;;;;;;;7.20;45.70;102316.66;5032142;28;20049;-56
2022/03/02 10:38:39;;;;;;;24.70;15.27;;;;;;;7.25;44.01;102309.34;5028178;28;20436;-55
2022/03/02 10:41:08;;;;;;;26.47;16.13;;;;;;;7.32;44.35;102311.94;5032496;28;20041;-55
2022/03/02 10:43:59;;;;;;;27.02;16.60;;;;;;;7.33;44.92;102311.69;5014661;28;20284;-56
2022/03/02 10:46:26;;;;;;;25.48;16.25;;;;;;;7.38;43.85;102307.34;5000356;28;20048;-55
2022/03/02 10:49:05;;;;;;;25.70;16.75;;;;;;;7.48;44.96;102307.50;5032071;28;20083;-55
2022/03/02 10:51:33;;;;;;;24.85;15.98;;;;;;;7.54;44.81;102309.28;5032230;28;20458;-55
2022/03/02 10:54:02;;;;;;;27.05;16.48;;;;;;;7.62;43.34;102308.88;5030379;28;20033;-56
2022/03/02 10:56:29;;;;;;;26.70;17.83;;;;;;;7.65;42.34;102310.28;5032523;28;20034;-56
2022/03/02 10:58:56;;;;;;;24.98;16.05;;;;;;;7.69;42.07;102305.97;5032030;28;20025;-55
2022/03/02 11:01:22;;;;;;;27.33;15.60;;;;;;;7.74;42.80;102303.28;5032160;28;20033;-56
2022/03/02 11:03:47;;;;;;;26.23;15.38;;;;;;;7.80;42.97;102305.00;5032091;28;20428;-56
2022/03/02 11:06:14;;;;;;;23.90;15.10;;;;;;;7.82;42.45;102296.50;5031939;28;20025;-55
2022/03/02 11:08:42;;;;;;;25.45;16.17;;;;;;;7.83;42.62;102280.81;5031975;28;20029;-55
2022/03/02 11:11:10;;;;;;;24.88;16.50;;;;;;;7.92;42.77;102293.06;5031591;28;20124;-55
2022/03/02 11:13:37;;;;;;;26.48;17.10;;;;;;;7.95;42.32;102300.84;5032236;28;20045;-56
2022/03/02 11:16:05;;;;;;;24.20;16.45;;;;;;;7.99;43.20;102290.13;5032159;28;20389;-55